Muribeca dos Guararapes, Brazil
Current Conditions -  °F | °C
As of 11:00 AM on Saturday 20 Dec 2014 (Local Time) from SBRF Reporting Station
Few Clouds Few Clouds  
Wind Chill: 86°   Ceiling: Unl
Heat Index: 93°   Visibility: 6mi
Dew Point: 73°   Wind: 10mph
Humidity: 66%   Direction: 60°ENE
Pressure: 29.97"   Gusts: NA
Location:  8.15°S, 34.97°W
Report Text: SBRF 201400Z 06009KT 9999 FEW025 30/23 Q1015
Loading
Personal Weather Stations






























Interactive Weather Map New forecast layout! Learn more

10-Day Weather Forecast

Advertisements
Track Severe Weather on mobile